Time;durP1;ratioP1;P1;durP2;ratioP2;P2;SDS_P1;SDS_P2;PMS_P1;PMS_P2;Temp;Humidity;BMP_temperature;BMP_pressure;BME280_temperature;BME280_humidity;BME280_pressure;Samples;Min_cycle;Max_cycle;Signal;HPM_P1;HPM_P2
2022/05/24 00:01:20;;;;;;;9.30;8.23;;;18.30;99.90;;;;;;5055416;28;20643;-76
2022/05/24 00:03:45;;;;;;;9.87;8.67;;;18.30;99.90;;;;;;5073760;28;20173;-76
2022/05/24 00:06:13;;;;;;;10.23;8.80;;;18.30;99.90;;;;;;5074007;28;20199;-75
2022/05/24 00:08:41;;;;;;;9.43;8.23;;;18.30;99.90;;;;;;5055924;28;20636;-76
2022/05/24 00:11:06;;;;;;;9.03;8.23;;;18.30;99.90;;;;;;5073201;28;20579;-75
2022/05/24 00:13:32;;;;;;;9.47;8.57;;;18.30;99.90;;;;;;5056789;28;20671;-75
2022/05/24 00:15:58;;;;;;;7.87;7.17;;;18.30;99.90;;;;;;5056226;28;20594;-76
2022/05/24 00:18:27;;;;;;;9.93;7.23;;;18.30;99.90;;;;;;5074445;28;21003;-75
2022/05/24 00:20:56;;;;;;;8.87;7.97;;;18.30;99.90;;;;;;5055804;28;20165;-75
2022/05/24 00:23:24;;;;;;;9.17;8.17;;;18.30;99.90;;;;;;5075881;28;20574;-75
2022/05/24 00:25:53;;;;;;;8.90;8.00;;;18.30;99.90;;;;;;5074758;28;20668;-75
2022/05/24 00:28:20;;;;;;;9.23;8.33;;;18.30;99.90;;;;;;5073399;28;20613;-75
2022/05/24 00:30:47;;;;;;;9.07;8.30;;;18.30;99.90;;;;;;5072712;28;20567;-76
2022/05/24 00:33:15;;;;;;;9.03;8.13;;;18.30;99.90;;;;;;5073131;28;20637;-75
2022/05/24 00:35:43;;;;;;;8.83;8.13;;;18.40;99.90;;;;;;5076281;28;20599;-75
2022/05/24 00:38:12;;;;;;;8.23;7.03;;;18.30;99.90;;;;;;5055520;28;20601;-75
2022/05/24 00:40:37;;;;;;;7.07;6.47;;;18.30;99.90;;;;;;5072351;28;21060;-75
2022/05/24 00:43:08;;;;;;;6.90;6.30;;;18.40;99.90;;;;;;5072906;28;20570;-75
2022/05/24 00:45:41;;;;;;;7.00;6.30;;;18.30;99.90;;;;;;5072850;28;20205;-75
2022/05/24 00:48:17;;;;;;;6.23;5.63;;;18.40;99.90;;;;;;5072877;28;20594;-75
2022/05/24 00:50:47;;;;;;;6.77;6.07;;;18.40;99.90;;;;;;5037462;28;21164;-75
2022/05/24 00:53:37;;;;;;;6.10;5.43;;;18.40;99.90;;;;;;5072829;28;20621;-75
2022/05/24 00:56:19;;;;;;;6.20;5.40;;;18.30;99.90;;;;;;5072839;28;20605;-75
2022/05/24 00:58:58;;;;;;;6.17;5.63;;;18.40;99.90;;;;;;5054985;28;20567;-75
2022/05/24 01:01:42;;;;;;;6.60;5.90;;;18.40;99.90;;;;;;5071948;28;20554;-75
2022/05/24 01:04:11;;;;;;;6.77;5.90;;;18.40;99.90;;;;;;5072484;28;20562;-75
2022/05/24 01:06:36;;;;;;;7.20;4.93;;;18.40;99.90;;;;;;5072617;28;20660;-75
2022/05/24 01:09:06;;;;;;;7.30;5.77;;;18.40;99.90;;;;;;5072766;28;20673;-75
2022/05/24 01:11:37;;;;;;;5.10;4.63;;;18.40;99.90;;;;;;5072953;28;20658;-75
2022/05/24 01:14:04;;;;;;;5.00;4.50;;;18.40;99.90;;;;;;5054637;28;20709;-75
2022/05/24 01:16:29;;;;;;;4.87;4.47;;;18.40;99.90;;;;;;5054329;28;20626;-76
2022/05/24 01:18:55;;;;;;;4.50;4.10;;;18.40;99.90;;;;;;5072592;28;20934;-76
2022/05/24 01:21:22;;;;;;;4.17;3.67;;;18.40;99.90;;;;;;5071679;28;20569;-76
2022/05/24 01:24:27;;;;;;;4.40;4.00;;;18.40;99.90;;;;;;5072086;28;20179;-76
2022/05/24 01:26:55;;;;;;;5.30;4.33;;;18.40;99.90;;;;;;5061064;28;20649;-76
2022/05/24 01:29:24;;;;;;;4.23;3.83;;;18.40;99.90;;;;;;5071485;28;20586;-75
2022/05/24 01:37:21;;;;;;;6.00;4.00;;;18.40;99.90;;;;;;5072024;28;20620;-76
2022/05/24 01:39:51;;;;;;;5.00;4.20;;;18.40;99.90;;;;;;5071344;28;21090;-76
2022/05/24 01:42:17;;;;;;;5.40;4.40;;;18.40;99.90;;;;;;5072044;28;20602;-76
2022/05/24 01:45:05;;;;;;;6.27;4.20;;;18.40;99.90;;;;;;5071969;28;20563;-76
2022/05/24 01:47:34;;;;;;;3.70;3.40;;;18.40;99.90;;;;;;5054144;28;20589;-76
2022/05/24 01:50:04;;;;;;;3.90;3.60;;;18.40;99.90;;;;;;5037420;28;20570;-76
2022/05/24 01:52:44;;;;;;;4.80;4.00;;;18.40;99.90;;;;;;5038294;28;20997;-76
2022/05/24 01:55:25;;;;;;;4.50;4.10;;;18.40;99.90;;;;;;5075103;28;21248;-76
2022/05/24 01:57:55;;;;;;;4.43;4.03;;;18.40;99.90;;;;;;5055100;28;21171;-76
2022/05/24 02:00:21;;;;;;;4.57;4.10;;;18.40;99.90;;;;;;5070764;28;20966;-76
2022/05/24 02:02:48;;;;;;;4.87;4.10;;;18.40;99.90;;;;;;5053936;28;20590;-76
2022/05/24 02:05:32;;;;;;;3.63;3.13;;;18.40;99.90;;;;;;5071619;28;20238;-76
2022/05/24 02:07:58;;;;;;;5.70;3.83;;;18.40;99.90;;;;;;5053751;28;20559;-76
2022/05/24 02:10:24;;;;;;;4.60;4.07;;;18.40;99.90;;;;;;5070824;28;20624;-76
2022/05/24 02:12:55;;;;;;;4.33;3.93;;;18.40;99.90;;;;;;5071683;28;20578;-75
2022/05/24 02:15:26;;;;;;;6.50;3.70;;;18.40;99.90;;;;;;5070655;28;20610;-76
2022/05/24 02:18:17;;;;;;;5.33;4.70;;;18.40;99.90;;;;;;5071761;28;20551;-76
2022/05/24 02:20:45;;;;;;;4.80;4.40;;;18.40;99.90;;;;;;5052698;28;20569;-77
2022/05/24 02:23:13;;;;;;;4.40;4.00;;;18.40;99.90;;;;;;5071655;28;20563;-76
2022/05/24 02:25:57;;;;;;;5.00;4.60;;;18.40;99.90;;;;;;5056509;28;21160;-76
2022/05/24 02:28:27;;;;;;;4.40;3.87;;;18.40;99.90;;;;;;5071625;28;20563;-76
2022/05/24 02:31:08;;;;;;;5.73;5.23;;;18.40;99.90;;;;;;5070507;28;20616;-76
2022/05/24 02:33:34;;;;;;;5.27;4.87;;;18.40;99.90;;;;;;5071470;28;20606;-76
2022/05/24 02:36:01;;;;;;;4.93;4.47;;;18.40;99.90;;;;;;5071426;28;21205;-76
2022/05/24 02:38:27;;;;;;;6.87;5.33;;;18.30;99.90;;;;;;5071414;28;20590;-76
2022/05/24 02:43:38;;;;;;;4.67;4.27;;;18.30;99.90;;;;;;5071234;28;20569;-76
2022/05/24 02:46:04;;;;;;;4.90;4.30;;;18.30;99.90;;;;;;5071249;28;20608;-76
2022/05/24 02:48:30;;;;;;;6.10;5.50;;;18.30;99.90;;;;;;5071381;28;20566;-76
2022/05/24 02:50:56;;;;;;;5.13;4.30;;;18.30;99.90;;;;;;5070717;28;20921;-76
2022/05/24 02:53:22;;;;;;;3.50;3.00;;;18.30;99.90;;;;;;5071215;28;20196;-76
2022/05/24 02:55:48;;;;;;;3.90;2.93;;;18.30;99.90;;;;;;5071492;28;20599;-76
2022/05/24 02:58:14;;;;;;;3.90;2.23;;;18.20;99.90;;;;;;5071174;28;20670;-76
2022/05/24 03:00:41;;;;;;;2.80;2.10;;;18.20;99.90;;;;;;5070681;28;20586;-76
2022/05/24 03:03:07;;;;;;;3.93;2.00;;;18.20;99.90;;;;;;5074413;28;20222;-76
2022/05/24 03:05:33;;;;;;;5.13;2.23;;;18.10;99.90;;;;;;5071286;28;20685;-76
2022/05/24 03:10:43;;;;;;;2.77;1.80;;;18.00;99.90;;;;;;5052634;28;20571;-76
2022/05/24 03:15:54;;;;;;;5.13;2.00;;;18.00;99.90;;;;;;5053234;28;20203;-76
2022/05/24 03:18:21;;;;;;;4.53;2.33;;;18.00;99.90;;;;;;5053319;28;20616;-76
2022/05/24 03:20:47;;;;;;;3.00;1.97;;;18.00;99.90;;;;;;5070486;28;20562;-76
2022/05/24 03:23:13;;;;;;;3.83;2.00;;;17.90;99.90;;;;;;5053244;28;20643;-76
2022/05/24 03:25:39;;;;;;;3.33;1.90;;;17.90;99.90;;;;;;5071016;28;20582;-76
2022/05/24 03:28:07;;;;;;;5.73;2.67;;;17.90;99.90;;;;;;5040448;28;20569;-76
2022/05/24 03:30:38;;;;;;;6.70;1.97;;;17.90;99.90;;;;;;5074061;28;20563;-76
2022/05/24 03:33:07;;;;;;;5.17;2.00;;;17.80;99.90;;;;;;5080473;28;20559;-76
2022/05/24 03:35:33;;;;;;;5.43;1.97;;;17.80;99.90;;;;;;5062995;28;20629;-76
2022/05/24 03:37:58;;;;;;;4.50;1.90;;;17.80;99.90;;;;;;5041947;28;20594;-78
2022/05/24 03:40:24;;;;;;;3.30;2.13;;;17.80;99.90;;;;;;5077168;28;20207;-79
2022/05/24 03:42:51;;;;;;;4.83;1.60;;;17.80;99.90;;;;;;5076139;28;20168;-79
2022/05/24 03:45:18;;;;;;;5.90;1.97;;;17.80;99.90;;;;;;5058613;28;20204;-77
2022/05/24 03:47:44;;;;;;;2.93;1.80;;;17.80;99.90;;;;;;5040508;28;20587;-78
2022/05/24 03:50:11;;;;;;;5.73;2.50;;;17.80;99.90;;;;;;5074104;28;21176;-78
2022/05/24 03:52:37;;;;;;;3.80;2.10;;;17.80;99.90;;;;;;5056851;28;20562;-79
2022/05/24 03:55:03;;;;;;;5.13;1.93;;;17.80;99.90;;;;;;5074443;28;20626;-78
2022/05/24 04:00:18;;;;;;;4.47;1.87;;;17.70;99.90;;;;;;5055458;28;20558;-79
2022/05/24 04:02:44;;;;;;;3.63;2.10;;;17.70;99.90;;;;;;5074389;28;20612;-79
2022/05/24 04:05:11;;;;;;;4.80;2.03;;;17.70;99.90;;;;;;5074296;28;20621;-80
2022/05/24 04:07:38;;;;;;;4.37;2.77;;;17.70;99.90;;;;;;5058595;28;20663;-78
2022/05/24 04:10:06;;;;;;;3.03;1.87;;;17.70;99.90;;;;;;5057044;28;20655;-79
2022/05/24 04:12:31;;;;;;;5.10;2.17;;;17.70;99.90;;;;;;5054131;28;20563;-78
2022/05/24 04:14:57;;;;;;;2.90;1.70;;;17.70;99.90;;;;;;5037719;28;20618;-79
2022/05/24 04:17:23;;;;;;;3.77;1.90;;;17.70;99.90;;;;;;5037852;28;20169;-79
2022/05/24 04:19:48;;;;;;;4.47;1.93;;;17.70;99.90;;;;;;5052994;28;20166;-80
2022/05/24 04:22:15;;;;;;;5.10;1.97;;;17.60;99.90;;;;;;5036100;28;20199;-79
2022/05/24 04:24:41;;;;;;;3.57;1.93;;;17.60;99.90;;;;;;5019116;28;20678;-79
2022/05/24 04:27:07;;;;;;;4.23;1.67;;;17.60;99.90;;;;;;5035743;28;20185;-79
2022/05/24 04:29:34;;;;;;;2.43;1.40;;;17.60;99.90;;;;;;5018863;28;20184;-79
2022/05/24 04:32:03;;;;;;;4.03;2.20;;;17.50;99.90;;;;;;5053217;28;20591;-79
2022/05/24 04:34:28;;;;;;;5.07;1.70;;;17.50;99.90;;;;;;5053476;28;20669;-80
2022/05/24 04:36:54;;;;;;;3.47;1.50;;;17.50;99.90;;;;;;5035611;28;20595;-79
2022/05/24 04:39:20;;;;;;;3.57;1.70;;;17.40;99.90;;;;;;5052235;28;20169;-80
2022/05/24 04:44:30;;;;;;;4.83;1.70;;;17.30;99.90;;;;;;5053509;28;20231;-79
2022/05/24 04:47:07;;;;;;;3.03;1.30;;;17.20;99.90;;;;;;5053325;28;21254;-79
2022/05/24 04:49:34;;;;;;;7.10;1.90;;;17.10;99.90;;;;;;5034909;28;20180;-80
2022/05/24 04:52:02;;;;;;;3.07;1.10;;;17.10;99.90;;;;;;5036391;28;20632;-79
2022/05/24 04:54:28;;;;;;;3.40;2.00;;;17.00;99.90;;;;;;5056562;28;20620;-80
2022/05/24 04:56:53;;;;;;;5.77;1.50;;;16.90;99.90;;;;;;5055054;28;20595;-79
2022/05/24 04:59:23;;;;;;;4.67;1.77;;;16.80;99.90;;;;;;5034743;28;20256;-79
2022/05/24 05:01:51;;;;;;;4.10;1.20;;;16.70;99.90;;;;;;5053449;28;20923;-78
2022/05/24 05:04:21;;;;;;;5.67;1.50;;;16.60;99.90;;;;;;5053542;28;21138;-79
2022/05/24 05:06:47;;;;;;;4.80;1.70;;;16.50;99.90;;;;;;5053022;28;20638;-79
2022/05/24 05:09:14;;;;;;;3.70;1.70;;;16.40;99.90;;;;;;5018183;28;20582;-80
2022/05/24 05:11:40;;;;;;;4.17;1.80;;;16.30;99.90;;;;;;5035150;28;20579;-79
2022/05/24 05:14:07;;;;;;;6.23;1.50;;;16.20;99.90;;;;;;5052499;28;20611;-79
2022/05/24 05:16:33;;;;;;;3.70;1.47;;;16.10;99.90;;;;;;5052883;28;20242;-80
2022/05/24 05:18:59;;;;;;;7.80;1.77;;;16.10;99.90;;;;;;5052849;28;20586;-79
2022/05/24 05:21:31;;;;;;;2.60;1.30;;;16.00;99.90;;;;;;5051711;28;20556;-80
2022/05/24 05:23:57;;;;;;;5.60;1.90;;;15.90;99.90;;;;;;5052884;28;20568;-80
2022/05/24 05:26:23;;;;;;;2.10;1.50;;;15.90;99.90;;;;;;5052897;28;20189;-80
2022/05/24 05:28:49;;;;;;;2.87;1.40;;;15.80;99.90;;;;;;5037798;28;20575;-79
2022/05/24 05:31:19;;;;;;;3.50;1.53;;;15.80;99.90;;;;;;5056294;28;20568;-80
2022/05/24 05:33:47;;;;;;;4.93;2.73;;;15.70;99.90;;;;;;5053690;28;20208;-80
2022/05/24 05:36:14;;;;;;;5.20;1.50;;;15.70;99.90;;;;;;5018651;28;20596;-80
2022/05/24 05:38:45;;;;;;;3.67;1.60;;;15.60;99.90;;;;;;5035342;28;20180;-80
2022/05/24 05:41:12;;;;;;;4.65;1.92;;;15.60;99.90;;;;;;5034523;28;20248;-81
2022/05/24 05:43:38;;;;;;;5.38;1.40;;;15.50;99.90;;;;;;5034728;28;20173;-80
2022/05/24 05:46:04;;;;;;;3.53;1.67;;;15.50;99.90;;;;;;5034720;28;20227;-80
2022/05/24 05:48:30;;;;;;;6.10;1.77;;;15.50;99.90;;;;;;5034946;28;20169;-81
2022/05/24 05:50:56;;;;;;;3.40;1.43;;;15.40;99.90;;;;;;5034638;28;20579;-81
2022/05/24 05:53:22;;;;;;;3.72;1.45;;;15.30;99.90;;;;;;5037298;28;20951;-81
2022/05/24 05:55:48;;;;;;;4.00;1.20;;;15.30;99.90;;;;;;5037545;28;20193;-82
2022/05/24 05:58:14;;;;;;;2.90;1.40;;;15.20;99.90;;;;;;5051714;28;20165;-85
2022/05/24 06:00:41;;;;;;;3.47;1.60;;;15.10;99.90;;;;;;5050660;28;20180;-83
2022/05/24 06:03:08;;;;;;;3.30;1.15;;;15.10;99.90;;;;;;5033318;28;20187;-84
2022/05/24 06:05:34;;;;;;;7.60;1.60;;;15.00;99.90;;;;;;5055312;28;20173;-83
2022/05/24 06:08:00;;;;;;;2.55;0.80;;;15.00;99.90;;;;;;5051176;28;20161;-83
2022/05/24 06:10:28;;;;;;;3.20;1.05;;;14.90;99.90;;;;;;5050827;28;20181;-82
2022/05/24 06:12:56;;;;;;;3.53;1.10;;;14.90;99.90;;;;;;5051510;28;20235;-83
2022/05/24 06:15:27;;;;;;;3.22;1.10;;;14.80;99.90;;;;;;5062943;28;20617;-84
2022/05/24 06:17:54;;;;;;;4.15;1.25;;;14.70;99.90;;;;;;5065649;28;20613;-84
2022/05/24 06:20:23;;;;;;;4.13;1.00;;;14.70;99.90;;;;;;5051370;28;20187;-86
2022/05/24 06:22:53;;;;;;;3.88;1.00;;;14.60;99.90;;;;;;5038915;28;20176;-84
2022/05/24 06:25:22;;;;;;;1.88;1.00;;;14.60;99.90;;;;;;5063300;28;20543;-83
2022/05/24 06:27:53;;;;;;;2.13;1.20;;;14.60;99.90;;;;;;5063033;28;20179;-83
2022/05/24 06:30:20;;;;;;;2.13;0.80;;;14.60;99.90;;;;;;5040417;28;20515;-82
2022/05/24 06:32:47;;;;;;;3.15;0.80;;;14.50;99.90;;;;;;5066779;28;20192;-82
2022/05/24 06:35:13;;;;;;;2.72;0.73;;;14.50;99.90;;;;;;5061789;28;20197;-82
2022/05/24 06:37:40;;;;;;;6.07;1.00;;;14.50;99.90;;;;;;5043294;28;20235;-82
2022/05/24 06:40:12;;;;;;;2.22;0.80;;;14.50;99.90;;;;;;5054754;28;20188;-82
2022/05/24 06:42:38;;;;;;;2.65;0.95;;;14.50;99.90;;;;;;5053906;28;20544;-82
2022/05/24 06:45:05;;;;;;;3.60;1.10;;;14.50;99.90;;;;;;5053656;28;20201;-75
2022/05/24 06:47:32;;;;;;;3.78;0.90;;;14.50;99.90;;;;;;5049867;28;20556;-75
2022/05/24 06:49:58;;;;;;;2.42;0.90;;;14.60;99.90;;;;;;5050289;28;20169;-76
2022/05/24 06:52:24;;;;;;;4.20;1.00;;;14.60;99.90;;;;;;5051275;28;20177;-76
2022/05/24 06:54:53;;;;;;;5.00;0.70;;;14.70;99.90;;;;;;5045963;28;20216;-76
2022/05/24 06:57:19;;;;;;;3.58;1.33;;;14.70;99.90;;;;;;5043313;28;20529;-75
2022/05/24 07:02:29;;;;;;;3.72;1.00;;;14.80;99.90;;;;;;5050839;28;20169;-75
2022/05/24 07:04:56;;;;;;;3.73;1.30;;;14.90;99.90;;;;;;5051510;28;20181;-75
2022/05/24 07:07:22;;;;;;;1.60;0.90;;;15.00;99.90;;;;;;5050318;28;20620;-75
2022/05/24 07:09:47;;;;;;;3.00;0.97;;;15.10;99.90;;;;;;5042820;28;20177;-76
2022/05/24 07:12:17;;;;;;;2.87;0.80;;;15.20;99.90;;;;;;5049955;28;20535;-75
2022/05/24 07:14:43;;;;;;;2.40;1.00;;;15.30;99.90;;;;;;5049943;28;20665;-75
2022/05/24 07:17:08;;;;;;;2.33;1.13;;;15.40;99.90;;;;;;5014627;28;21028;-75
2022/05/24 07:19:35;;;;;;;1.77;0.90;;;15.60;99.90;;;;;;5043806;28;20568;-75
2022/05/24 07:22:01;;;;;;;2.80;0.80;;;15.80;99.90;;;;;;5055349;28;20176;-74
2022/05/24 07:24:27;;;;;;;5.87;0.90;;;16.10;99.90;;;;;;5043413;28;20231;-75
2022/05/24 07:26:53;;;;;;;2.70;0.90;;;16.60;99.90;;;;;;5035654;28;20189;-75
2022/05/24 07:29:20;;;;;;;2.10;0.77;;;17.10;99.90;;;;;;5053452;28;20583;-74
2022/05/24 07:31:46;;;;;;;1.80;0.87;;;17.40;99.90;;;;;;5053553;28;20572;-75
2022/05/24 07:34:12;;;;;;;3.93;0.80;;;17.70;99.90;;;;;;5037741;28;20635;-74
2022/05/24 07:36:37;;;;;;;2.03;0.80;;;18.00;99.90;;;;;;5051325;28;20289;-75
2022/05/24 07:39:03;;;;;;;3.30;1.00;;;18.20;99.90;;;;;;5053607;28;20734;-75
2022/05/24 07:46:59;;;;;;;2.67;0.80;;;20.00;99.90;;;;;;5055498;28;20615;-75
2022/05/24 07:49:24;;;;;;;4.03;0.87;;;20.50;99.90;;;;;;5053449;28;21411;-75
2022/05/24 07:51:50;;;;;;;2.03;0.90;;;21.10;99.90;;;;;;5051518;28;20180;-75
2022/05/24 07:54:16;;;;;;;1.80;0.70;;;21.40;99.90;;;;;;5043868;28;20201;-75
2022/05/24 07:56:42;;;;;;;1.50;0.60;;;21.80;99.90;;;;;;5051948;28;20694;-75
2022/05/24 07:59:08;;;;;;;1.63;0.67;;;22.20;99.90;;;;;;5043209;28;20165;-74
2022/05/24 08:01:36;;;;;;;1.80;0.60;;;22.70;99.90;;;;;;5046676;28;20304;-76
2022/05/24 08:04:03;;;;;;;1.40;0.70;;;23.50;99.90;;;;;;5033316;28;20564;-75
2022/05/24 08:06:29;;;;;;;2.93;0.80;;;23.90;99.90;;;;;;5015511;28;20603;-76
2022/05/24 08:08:54;;;;;;;3.97;0.70;;;24.40;99.90;;;;;;5033670;28;20575;-76
2022/05/24 08:11:20;;;;;;;2.17;0.60;;;25.10;99.90;;;;;;5032394;28;20684;-77
2022/05/24 08:13:46;;;;;;;3.97;0.70;;;25.80;99.90;;;;;;5031689;28;20205;-76
2022/05/24 08:16:12;;;;;;;1.33;0.53;;;26.50;99.90;;;;;;5019890;28;20192;-76
2022/05/24 08:18:38;;;;;;;2.80;0.63;;;27.20;99.90;;;;;;5054781;28;20980;-76
2022/05/24 08:21:04;;;;;;;3.87;0.73;;;27.90;99.90;;;;;;5054055;28;20240;-77
2022/05/24 08:23:30;;;;;;;2.20;0.80;;;28.60;99.90;;;;;;5053493;28;20177;-76
2022/05/24 08:25:56;;;;;;;3.40;0.60;;;29.20;99.90;;;;;;5053554;28;20982;-77
2022/05/24 08:28:25;;;;;;;2.40;0.80;;;29.70;99.90;;;;;;5035105;28;20629;-77
2022/05/24 08:30:53;;;;;;;2.17;0.50;;;30.10;99.90;;;;;;5052201;28;20985;-77
2022/05/24 08:33:21;;;;;;;2.17;0.70;;;30.20;99.90;;;;;;5034915;28;20600;-76
2022/05/24 08:35:47;;;;;;;1.60;0.70;;;30.20;99.90;;;;;;5042045;28;20966;-76
2022/05/24 08:38:13;;;;;;;2.93;0.70;;;30.00;99.90;;;;;;5046730;28;20574;-76
2022/05/24 08:40:42;;;;;;;2.60;0.77;;;29.70;99.90;;;;;;5031500;28;20987;-76
2022/05/24 08:43:22;;;;;;;3.37;1.07;;;29.10;99.20;;;;;;5046273;28;21086;-76
2022/05/24 08:48:57;;;;;;;2.50;0.70;;;27.80;97.50;;;;;;5067259;28;20695;-75
2022/05/24 08:51:32;;;;;;;2.10;0.60;;;27.10;98.40;;;;;;5052121;28;20574;-75
2022/05/24 08:54:04;;;;;;;2.80;0.60;;;26.40;98.50;;;;;;5058448;28;20735;-76
2022/05/24 08:56:50;;;;;;;2.33;0.70;;;26.00;98.80;;;;;;5058888;28;20670;-75
2022/05/24 08:59:21;;;;;;;1.70;0.50;;;26.10;99.90;;;;;;5039188;28;20579;-74
2022/05/24 09:01:49;;;;;;;1.50;0.50;;;26.60;99.90;;;;;;5055348;28;20581;-75
2022/05/24 09:04:15;;;;;;;1.73;0.73;;;27.10;99.90;;;;;;5042284;28;20862;-76
2022/05/24 09:07:02;;;;;;;1.70;0.50;;;27.50;99.90;;;;;;5020871;28;21259;-76
2022/05/24 09:09:37;;;;;;;1.73;0.50;;;27.50;97.80;;;;;;5060750;28;20998;-76
2022/05/24 09:12:37;;;;;;;2.83;0.90;;;27.30;97.10;;;;;;5046849;28;20591;-76
2022/05/24 09:15:45;;;;;;;2.23;0.80;;;27.00;95.80;;;;;;5055129;28;20630;-77
2022/05/24 09:18:27;;;;;;;2.20;0.60;;;26.60;95.60;;;;;;5052284;28;21251;-75
2022/05/24 09:20:54;;;;;;;1.70;0.70;;;26.10;95.60;;;;;;5016739;28;20601;-76
2022/05/24 09:23:40;;;;;;;6.70;0.90;;;25.50;95.20;;;;;;5052222;28;20594;-75
2022/05/24 09:26:12;;;;;;;1.90;0.47;;;25.00;94.30;;;;;;5051636;28;20641;-75
2022/05/24 09:28:57;;;;;;;1.90;0.60;;;24.60;95.00;;;;;;5033713;28;20572;-75
2022/05/24 09:31:39;;;;;;;2.20;0.80;;;24.20;94.80;;;;;;5050951;28;20571;-76
2022/05/24 09:34:29;;;;;;;1.73;0.70;;;23.90;95.10;;;;;;5033916;28;20618;-75
2022/05/24 09:36:59;;;;;;;1.60;0.50;;;23.60;95.00;;;;;;5021993;28;20626;-76
2022/05/24 09:39:42;;;;;;;1.63;0.60;;;23.20;95.50;;;;;;5033247;28;21011;-76
2022/05/24 09:42:28;;;;;;;1.60;0.90;;;23.00;95.80;;;;;;5051388;28;20566;-76
2022/05/24 09:44:59;;;;;;;3.03;0.50;;;22.80;95.90;;;;;;5051304;28;20557;-75
2022/05/24 09:47:42;;;;;;;2.00;0.50;;;22.70;96.30;;;;;;5032751;28;20569;-75
2022/05/24 09:50:32;;;;;;;3.83;0.53;;;22.60;96.60;;;;;;5052316;28;20580;-75
2022/05/24 09:53:08;;;;;;;2.10;0.70;;;22.50;96.50;;;;;;5068566;23;20580;-74
2022/05/24 09:55:42;;;;;;;2.43;0.60;;;22.50;97.10;;;;;;5001111;28;20624;-74
2022/05/24 09:58:28;;;;;;;1.60;0.60;;;22.50;97.30;;;;;;5011015;28;20923;-74
2022/05/24 10:01:27;;;;;;;1.40;0.50;;;22.60;97.10;;;;;;5007695;28;20581;-74
2022/05/24 10:03:53;;;;;;;1.30;0.60;;;22.80;98.20;;;;;;5008937;28;20617;-74
2022/05/24 10:06:26;;;;;;;1.80;0.60;;;23.10;98.70;;;;;;5023355;28;21128;-75
2022/05/24 10:09:22;;;;;;;1.93;0.57;;;23.30;97.80;;;;;;4990334;28;20616;-74
2022/05/24 10:12:07;;;;;;;1.47;0.50;;;23.90;98.50;;;;;;4999344;28;20589;-75
2022/05/24 10:14:50;;;;;;;3.10;0.50;;;24.80;99.90;;;;;;5031098;28;20631;-74
2022/05/24 10:17:53;;;;;;;1.60;0.63;;;25.80;99.90;;;;;;5031025;28;20568;-74
2022/05/24 10:20:39;;;;;;;4.13;0.83;;;26.50;99.20;;;;;;5029547;28;20610;-74
2022/05/24 10:23:29;;;;;;;1.80;0.80;;;27.10;96.60;;;;;;4996992;28;20604;-74
2022/05/24 10:26:00;;;;;;;2.35;0.80;;;27.20;95.50;;;;;;5011698;28;20669;-77
2022/05/24 10:28:32;;;;;;;2.03;0.53;;;26.70;83.00;;;;;;5030952;28;20205;-77
2022/05/24 10:31:22;;;;;;;1.60;0.70;;;26.60;88.20;;;;;;5012537;28;20572;-77
2022/05/24 10:40:04;;;;;;;1.40;0.50;;;26.40;90.40;;;;;;5018171;28;20583;-77
2022/05/24 10:42:38;;;;;;;2.60;0.77;;;26.70;90.50;;;;;;5025287;28;20581;-78
2022/05/24 10:45:19;;;;;;;1.20;0.50;;;26.90;91.90;;;;;;5017322;28;20657;-78
2022/05/24 10:48:08;;;;;;;2.07;0.40;;;27.30;92.10;;;;;;5009042;28;20604;-78
2022/05/24 10:50:41;;;;;;;2.43;0.60;;;27.70;91.50;;;;;;5029288;28;20607;-78
2022/05/24 10:53:20;;;;;;;2.00;0.80;;;28.00;91.40;;;;;;5025952;28;20624;-78
2022/05/24 10:55:57;;;;;;;1.50;0.67;;;28.30;90.60;;;;;;4996694;28;20591;-77
2022/05/24 10:58:25;;;;;;;2.33;1.20;;;28.70;90.90;;;;;;5012974;28;20585;-77
2022/05/24 11:01:20;;;;;;;1.33;0.60;;;29.00;90.40;;;;;;5007566;28;21140;-77
2022/05/24 11:03:52;;;;;;;2.27;0.60;;;29.20;89.40;;;;;;4995020;28;21427;-77
2022/05/24 11:06:39;;;;;;;1.40;0.57;;;29.50;88.50;;;;;;5014680;28;20663;-77
2022/05/24 11:09:19;;;;;;;1.73;0.50;;;29.60;80.20;;;;;;5014681;28;20947;-76
2022/05/24 11:12:08;;;;;;;1.50;0.50;;;29.80;81.90;;;;;;5014242;28;20576;-77
2022/05/24 11:14:40;;;;;;;1.43;0.60;;;29.90;78.50;;;;;;5014578;28;21263;-78
2022/05/24 11:17:10;;;;;;;2.27;0.50;;;29.80;79.40;;;;;;5013486;28;20577;-78
2022/05/24 11:19:39;;;;;;;2.40;0.70;;;29.70;77.00;;;;;;5013436;28;20967;-78
2022/05/24 11:22:29;;;;;;;2.33;0.50;;;29.40;75.80;;;;;;4996501;28;20607;-78
2022/05/24 11:25:17;;;;;;;1.93;0.50;;;29.10;72.80;;;;;;5018540;28;20601;-77
2022/05/24 11:28:00;;;;;;;1.63;0.60;;;28.60;74.00;;;;;;4996800;28;20596;-77
2022/05/24 11:30:41;;;;;;;1.20;0.50;;;28.20;73.90;;;;;;4979877;28;21172;-77
2022/05/24 11:33:16;;;;;;;1.20;0.50;;;27.90;73.80;;;;;;5013652;28;20632;-77
2022/05/24 11:35:53;;;;;;;1.93;0.60;;;27.50;73.60;;;;;;5014317;28;20581;-77
2022/05/24 11:38:22;;;;;;;2.10;0.70;;;27.30;73.50;;;;;;5014053;28;20605;-77
2022/05/24 11:40:54;;;;;;;2.60;0.90;;;27.10;74.90;;;;;;4979622;28;20573;-78
2022/05/24 11:43:35;;;;;;;1.73;0.73;;;26.90;74.00;;;;;;4996346;28;21291;-78
2022/05/24 11:46:03;;;;;;;2.80;0.70;;;26.80;76.30;;;;;;5013810;28;20676;-78
2022/05/24 11:48:47;;;;;;;1.63;0.70;;;26.80;76.90;;;;;;5012426;28;20573;-77
2022/05/24 11:51:37;;;;;;;1.73;0.77;;;26.80;76.70;;;;;;5013348;28;20576;-78
2022/05/24 11:54:25;;;;;;;1.70;1.00;;;26.90;79.60;;;;;;5013474;28;21085;-78
2022/05/24 11:57:01;;;;;;;2.87;1.03;;;27.20;79.50;;;;;;4992689;28;20586;-78
2022/05/24 11:59:48;;;;;;;2.23;0.60;;;27.40;78.80;;;;;;4998941;28;20573;-77
2022/05/24 12:02:26;;;;;;;1.80;0.60;;;27.60;76.90;;;;;;5016097;28;20592;-77
2022/05/24 12:07:56;;;;;;;3.40;1.67;;;27.50;73.20;;;;;;4987921;28;20625;-76
2022/05/24 12:10:49;;;;;;;3.57;2.00;;;27.30;72.70;;;;;;5000385;28;20573;-77
2022/05/24 12:13:31;;;;;;;1.70;0.80;;;27.10;72.90;;;;;;5018447;28;20632;-77
2022/05/24 12:16:04;;;;;;;1.60;0.70;;;26.90;70.40;;;;;;5004627;28;20580;-76
2022/05/24 12:19:03;;;;;;;2.97;1.27;;;27.00;72.00;;;;;;5033225;28;20560;-78
2022/05/24 12:21:51;;;;;;;1.40;0.70;;;26.80;70.90;;;;;;4983359;28;20648;-79
2022/05/24 12:24:33;;;;;;;1.90;0.50;;;26.70;69.10;;;;;;5013078;28;21180;-79
2022/05/24 12:27:27;;;;;;;1.53;0.60;;;26.60;70.50;;;;;;5017667;28;20585;-79
2022/05/24 12:29:55;;;;;;;1.70;0.93;;;26.60;71.80;;;;;;5016076;28;20581;-79
2022/05/24 12:32:25;;;;;;;1.57;0.80;;;26.60;71.20;;;;;;5030591;28;20580;-79
2022/05/24 12:34:54;;;;;;;1.40;0.60;;;26.60;71.10;;;;;;5031740;28;20628;-78
2022/05/24 12:37:30;;;;;;;1.20;0.50;;;26.60;71.80;;;;;;5037126;28;20913;-78
2022/05/24 12:40:13;;;;;;;1.73;0.60;;;26.60;71.20;;;;;;5032663;28;20572;-78
2022/05/24 12:43:07;;;;;;;2.40;0.57;;;26.60;71.50;;;;;;5033076;28;20564;-78
2022/05/24 12:45:44;;;;;;;1.40;0.57;;;26.50;71.20;;;;;;5031327;28;21136;-78
2022/05/24 12:48:22;;;;;;;2.43;0.63;;;26.40;70.40;;;;;;5032513;28;20569;-78
2022/05/24 12:50:48;;;;;;;1.20;0.40;;;26.30;69.80;;;;;;5031908;28;20576;-78
2022/05/24 12:53:21;;;;;;;1.70;0.90;;;26.10;69.10;;;;;;5018841;28;20661;-78
2022/05/24 12:56:09;;;;;;;1.30;0.50;;;25.90;67.90;;;;;;4959011;28;21165;-79
2022/05/24 12:58:38;;;;;;;1.70;0.60;;;25.70;66.80;;;;;;4992614;28;20569;-78
2022/05/24 13:01:15;;;;;;;1.17;0.50;;;25.50;67.80;;;;;;4992418;28;20576;-78
2022/05/24 13:03:46;;;;;;;3.57;0.60;;;25.30;67.80;;;;;;5009137;28;21135;-78
2022/05/24 13:06:21;;;;;;;3.17;0.50;;;25.30;67.80;;;;;;5011342;28;20576;-79
2022/05/24 13:08:47;;;;;;;1.60;0.60;;;25.10;69.50;;;;;;5012488;28;20570;-78
2022/05/24 13:11:14;;;;;;;1.50;0.50;;;25.10;69.00;;;;;;5010387;28;20573;-78
2022/05/24 13:13:41;;;;;;;1.33;0.57;;;25.00;68.70;;;;;;5013763;28;20636;-78
2022/05/24 13:16:07;;;;;;;1.80;0.60;;;25.00;68.30;;;;;;5013271;28;20591;-78
2022/05/24 13:18:34;;;;;;;1.40;0.47;;;24.90;68.20;;;;;;5026144;28;20580;-78
2022/05/24 13:21:06;;;;;;;2.47;1.10;;;24.90;68.00;;;;;;5031104;28;21091;-78
2022/05/24 13:23:37;;;;;;;1.40;0.80;;;24.90;66.80;;;;;;5013928;28;20635;-78
2022/05/24 13:26:06;;;;;;;1.83;0.70;;;24.90;67.40;;;;;;5031688;28;20675;-78
2022/05/24 13:28:48;;;;;;;2.15;0.90;;;24.80;67.10;;;;;;5031353;28;20702;-78
2022/05/24 13:34:25;;;;;;;1.50;0.70;;;24.60;66.80;;;;;;5020612;28;20636;-78
2022/05/24 13:36:55;;;;;;;1.70;0.67;;;24.40;67.30;;;;;;5012150;28;20656;-77
2022/05/24 13:39:25;;;;;;;2.97;0.63;;;24.20;68.20;;;;;;5011116;28;20673;-78
2022/05/24 13:42:21;;;;;;;4.60;0.90;;;24.00;68.60;;;;;;5011499;28;20562;-78
2022/05/24 13:45:13;;;;;;;2.40;0.60;;;23.90;69.80;;;;;;5011713;28;20656;-77
2022/05/24 13:47:43;;;;;;;2.47;1.30;;;23.70;69.60;;;;;;4994481;28;20576;-77
2022/05/24 13:50:31;;;;;;;1.50;0.60;;;23.60;70.40;;;;;;5011823;28;20580;-77
2022/05/24 13:53:04;;;;;;;2.00;0.70;;;23.60;71.40;;;;;;5012018;28;21116;-77
2022/05/24 13:55:36;;;;;;;1.90;0.60;;;23.60;72.10;;;;;;5011475;28;20716;-78